Hauptseite
METAR-TAF:

METAR-TAF

Flughäfen :

Fliegerhorst Büchel

Büchel, Deutschland

Breite: 50-10N, Länge: 007-04E, Höhe: 478 m

Beobachtung

Neuester Wetterbericht von vor 39 Minuten, um 03:20 UTC
Wind 10 kt aus Ost
Temperatur 2°C
Luftfeuchtigkeit 100%
Luftdruck 1026 hPa
Sichtweite: 0050 m

METAR: ETSB 160320Z AUTO 09010KT 0050 // ////// 02/02 Q1026 ///

Zeit: 04:59 (03:59 UTC)

Prognose

Neuester Wetterbericht von vor 11 Stunden und 39 Minuten, um 16:20 UTC
Gültige Prognose vom 15 um 16 UTC bis 15 um 24 UTC
Wind 5 kt aus Ost
Sichtweite: 4000 m
Geschlossene Wolkendecke in der Höhe von 200 ft
feuchter Dunst
Übergehend zu
vom 15 um 16 UTC bis 15 um 18 UTC
Wind 5 kt aus Ost/Südost
Sichtweite: 1620 m
in der Höhe von 100 ft
Nebel

TAF: ETSB 151620Z 1516/1524 10005KT 4000 BR OVC002 BECMG 1516/1518 11005KT 0500 FG VV001 CANCEL 1620 BY ETGL

Wetterbeobachtungen und Prognosen von mehr als 4000 Flughäfen (METAR und TAF Bericht).

Die verfügbaren Stationen werden durch gelbe und rote Markierungen auf der Karte dargestellt.

Führen Sie die Maus auf sie, um den Namen der Station zu sehen.

Darauf klicken, um die Beobachtung von Wetterbeobachtungen und Prognosen zu sehen.

Um die Karte zu ändern : klicken Sie auf den grünen Tasten mit einem schwarzen Kreuz Zum Vergrößern, auf den grünen Button mit einem Gedankenstrich zu verkleinern, oder auf die grünen Pfeile für benachbarte Karten.


METAR-TAF: